createdAt,value
2018-04-15T00:01:28.688Z,99.90
2018-04-15T00:03:56.314Z,99.90
2018-04-15T00:06:24.710Z,99.90
2018-04-15T00:08:53.015Z,99.90
2018-04-15T00:11:20.573Z,99.90
2018-04-15T00:13:48.142Z,99.90
2018-04-15T00:16:15.749Z,99.90
2018-04-15T00:18:44.121Z,99.90
2018-04-15T00:21:11.762Z,99.90
2018-04-15T00:23:39.330Z,99.90
2018-04-15T00:26:06.965Z,99.90
2018-04-15T00:28:34.568Z,99.90
2018-04-15T00:31:02.960Z,99.90
2018-04-15T00:33:31.329Z,99.90
2018-04-15T00:35:59.695Z,99.90
2018-04-15T00:38:27.333Z,99.90
2018-04-15T00:40:54.930Z,99.90
2018-04-15T00:43:23.301Z,99.90
2018-04-15T00:45:50.869Z,99.90
2018-04-15T00:48:19.210Z,99.90
2018-04-15T00:50:46.851Z,99.90
2018-04-15T00:53:14.443Z,99.90
2018-04-15T00:55:42.071Z,99.90
2018-04-15T00:58:09.661Z,99.90
2018-04-15T01:00:37.254Z,99.90
2018-04-15T01:03:05.598Z,99.90
2018-04-15T01:05:33.170Z,99.90
2018-04-15T01:08:00.791Z,99.90
2018-04-15T01:10:28.407Z,99.90
2018-04-15T01:12:55.969Z,99.90
2018-04-15T01:15:24.339Z,99.90
2018-04-15T01:17:52.758Z,99.90
2018-04-15T01:20:20.379Z,99.90
2018-04-15T01:22:47.987Z,99.90
2018-04-15T01:25:15.553Z,99.90
2018-04-15T01:27:43.218Z,99.90
2018-04-15T01:30:10.817Z,99.90
2018-04-15T01:32:38.438Z,99.90
2018-04-15T01:35:06.037Z,99.90
2018-04-15T01:37:33.662Z,99.90
2018-04-15T01:40:01.259Z,99.90
2018-04-15T01:42:28.813Z,99.90
2018-04-15T01:44:56.379Z,99.90
2018-04-15T01:47:24.718Z,99.90
2018-04-15T01:49:52.276Z,99.90
2018-04-15T01:52:19.888Z,99.90
2018-04-15T01:54:48.265Z,99.90
2018-04-15T01:57:15.839Z,99.90
2018-04-15T01:59:43.414Z,99.90
2018-04-15T02:02:11.018Z,99.90
2018-04-15T02:04:38.610Z,99.90
2018-04-15T02:07:07.030Z,99.90
2018-04-15T02:09:34.648Z,99.90
2018-04-15T02:12:02.989Z,99.90
2018-04-15T02:14:30.569Z,99.90
2018-04-15T02:16:58.145Z,99.90
2018-04-15T02:19:25.762Z,99.90
2018-04-15T02:21:53.382Z,99.90
2018-04-15T02:24:20.950Z,99.90
2018-04-15T02:26:48.569Z,99.90
2018-04-15T02:29:16.122Z,99.90
2018-04-15T02:31:43.759Z,99.90
2018-04-15T02:34:11.328Z,99.90
2018-04-15T02:36:38.889Z,99.90
2018-04-15T02:39:06.497Z,99.90
2018-04-15T02:41:34.092Z,99.90
2018-04-15T02:44:01.721Z,99.90
2018-04-15T02:46:29.330Z,99.90
2018-04-15T02:48:56.905Z,99.90
2018-04-15T02:51:24.542Z,99.90
2018-04-15T02:53:52.157Z,99.90
2018-04-15T02:56:19.752Z,99.90
2018-04-15T02:58:47.320Z,99.90
2018-04-15T03:01:14.886Z,99.90
2018-04-15T03:03:42.462Z,99.90
2018-04-15T03:06:10.087Z,99.90
2018-04-15T03:08:37.719Z,99.90
2018-04-15T03:11:05.321Z,99.90
2018-04-15T03:13:32.938Z,99.90
2018-04-15T03:16:01.310Z,99.90
2018-04-15T03:18:29.644Z,99.90
2018-04-15T03:20:57.232Z,99.90
2018-04-15T03:23:24.829Z,99.90
2018-04-15T03:25:52.416Z,99.90
2018-04-15T03:28:20.002Z,99.90
2018-04-15T03:30:47.616Z,99.90
2018-04-15T03:33:15.220Z,99.90
2018-04-15T03:35:42.861Z,99.90
2018-04-15T03:38:10.462Z,99.90
2018-04-15T03:40:38.820Z,99.90
2018-04-15T03:43:06.427Z,99.90
2018-04-15T03:45:33.978Z,99.90
2018-04-15T03:48:01.553Z,99.90
2018-04-15T03:50:39.981Z,99.90
2018-04-15T03:53:07.694Z,99.90
2018-04-15T03:55:35.257Z,99.90
2018-04-15T03:58:03.655Z,99.90
2018-04-15T04:00:31.499Z,99.90
2018-04-15T04:02:59.910Z,99.90
2018-04-15T04:05:27.482Z,99.90
2018-04-15T04:07:55.088Z,99.90
2018-04-15T04:10:22.729Z,99.90
2018-04-15T04:12:50.358Z,99.90
2018-04-15T04:15:17.964Z,99.90
2018-04-15T04:21:00.833Z,99.90
2018-04-15T04:23:40.976Z,99.90
2018-04-15T04:26:09.262Z,99.90
2018-04-15T04:28:37.544Z,99.90
2018-04-15T04:31:05.100Z,99.90
2018-04-15T04:33:33.385Z,99.90
2018-04-15T04:36:00.927Z,99.90
2018-04-15T04:38:29.225Z,99.90
2018-04-15T04:40:56.762Z,99.90
2018-04-15T04:43:25.081Z,99.90
2018-04-15T04:45:52.608Z,99.90
2018-04-15T04:48:20.915Z,99.90
2018-04-15T04:50:48.441Z,99.90
2018-04-15T04:53:16.748Z,99.90
2018-04-15T04:55:44.281Z,99.90
2018-04-15T04:58:11.833Z,99.90
2018-04-15T05:00:40.131Z,99.90
2018-04-15T05:03:07.681Z,99.90
2018-04-15T05:05:35.239Z,99.90
2018-04-15T05:08:02.776Z,99.90
2018-04-15T05:10:36.726Z,99.90
2018-04-15T05:16:17.479Z,99.90
2018-04-15T05:18:49.075Z,99.90
2018-04-15T05:21:16.714Z,99.90
2018-04-15T05:23:44.329Z,99.90
2018-04-15T05:26:11.961Z,99.90
2018-04-15T05:28:39.594Z,99.90
2018-04-15T05:31:07.185Z,99.90
2018-04-15T05:33:34.821Z,99.90
2018-04-15T05:36:02.394Z,99.90
2018-04-15T05:38:30.772Z,99.90
2018-04-15T05:40:58.320Z,99.90
2018-04-15T05:43:25.974Z,99.90
2018-04-15T05:45:53.585Z,99.90
2018-04-15T05:48:21.218Z,99.90
2018-04-15T05:50:48.844Z,99.90
2018-04-15T05:53:17.217Z,99.90
2018-04-15T05:55:45.572Z,99.90
2018-04-15T05:58:13.195Z,99.90
2018-04-15T06:00:40.811Z,99.90
2018-04-15T06:03:09.162Z,99.90
2018-04-15T06:05:39.982Z,99.90
2018-04-15T06:08:07.609Z,99.90
2018-04-15T06:10:35.212Z,99.90
2018-04-15T06:13:02.802Z,99.90
2018-04-15T06:15:30.382Z,99.90
2018-04-15T06:17:58.002Z,99.90
2018-04-15T06:20:25.592Z,99.90
2018-04-15T06:22:53.208Z,99.90
2018-04-15T06:25:20.781Z,99.90
2018-04-15T06:27:48.341Z,99.90
2018-04-15T06:30:15.916Z,99.90
2018-04-15T06:32:43.541Z,99.90
2018-04-15T06:35:11.137Z,99.90
2018-04-15T06:37:39.542Z,99.90
2018-04-15T06:40:26.991Z,99.90
2018-04-15T06:42:54.609Z,99.90
2018-04-15T06:45:22.988Z,99.90
2018-04-15T06:47:51.375Z,99.90
2018-04-15T06:56:17.153Z,99.90
2018-04-15T07:07:31.500Z,99.90
2018-04-15T07:09:59.123Z,99.90
2018-04-15T07:12:28.688Z,99.90
2018-04-15T07:14:56.356Z,99.90
2018-04-15T07:17:23.997Z,99.90
2018-04-15T07:19:51.599Z,99.90
2018-04-15T07:22:19.252Z,99.90
2018-04-15T07:24:47.604Z,99.90
2018-04-15T07:27:15.228Z,99.90
2018-04-15T07:29:42.816Z,99.90
2018-04-15T07:32:10.401Z,99.90
2018-04-15T07:34:37.997Z,98.80
2018-04-15T07:37:05.599Z,98.20
2018-04-15T07:39:33.242Z,98.30
2018-04-15T07:42:00.822Z,94.30
2018-04-15T07:44:29.257Z,81.80
2018-04-15T07:46:56.869Z,81.20
2018-04-15T07:49:24.448Z,73.80
2018-04-15T07:51:52.830Z,67.10
2018-04-15T07:54:21.248Z,65.20
2018-04-15T07:56:48.842Z,65.00
2018-04-15T07:59:16.479Z,63.20
2018-04-15T08:01:44.108Z,63.30
2018-04-15T08:04:11.671Z,64.80
2018-04-15T08:06:39.255Z,62.80
2018-04-15T08:09:06.840Z,62.30
2018-04-15T08:11:34.501Z,62.40
2018-04-15T08:14:02.090Z,64.90
2018-04-15T08:16:30.503Z,68.80
2018-04-15T08:18:58.098Z,68.80
2018-04-15T08:21:25.682Z,71.90
2018-04-15T08:23:53.279Z,71.50
2018-04-15T08:26:20.841Z,71.20
2018-04-15T08:28:48.421Z,66.90
2018-04-15T08:31:16.054Z,67.10
2018-04-15T08:33:43.650Z,65.70
2018-04-15T08:36:11.233Z,68.40
2018-04-15T08:38:38.888Z,67.10
2018-04-15T08:41:06.483Z,69.80
2018-04-15T08:43:34.822Z,74.90
2018-04-15T08:46:02.396Z,74.80
2018-04-15T08:48:30.068Z,70.60
2018-04-15T08:50:57.629Z,75.40
2018-04-15T08:53:25.978Z,66.70
2018-04-15T08:55:53.540Z,66.70
2018-04-15T08:58:21.139Z,62.60
2018-04-15T09:00:49.497Z,70.80
2018-04-15T09:03:17.097Z,70.80
2018-04-15T09:05:47.617Z,72.90
2018-04-15T09:08:15.205Z,73.40
2018-04-15T09:10:43.582Z,76.90
2018-04-15T09:13:11.189Z,77.60
2018-04-15T09:15:39.600Z,80.30
2018-04-15T09:18:07.222Z,80.20
2018-04-15T09:20:35.593Z,70.50
2018-04-15T09:23:03.188Z,70.10
2018-04-15T09:25:30.756Z,62.90
2018-04-15T09:27:58.323Z,61.80
2018-04-15T09:30:25.907Z,64.00
2018-04-15T09:32:53.535Z,63.50
2018-04-15T09:35:21.124Z,66.40
2018-04-15T09:37:48.790Z,58.20
2018-04-15T09:40:17.191Z,58.70
2018-04-15T09:42:44.809Z,60.20
2018-04-15T09:45:12.353Z,61.70
2018-04-15T09:47:39.955Z,65.40
2018-04-15T09:50:07.513Z,66.90
2018-04-15T09:52:35.182Z,69.40
2018-04-15T09:55:02.695Z,66.70
2018-04-15T09:57:30.250Z,65.20
2018-04-15T09:59:57.888Z,64.70
2018-04-15T10:02:26.239Z,59.00
2018-04-15T10:04:53.879Z,58.70
2018-04-15T10:07:21.464Z,55.60
2018-04-15T10:09:49.056Z,50.50
2018-04-15T10:12:16.667Z,51.40
2018-04-15T10:14:44.260Z,51.20
2018-04-15T10:17:11.849Z,46.50
2018-04-15T10:19:39.405Z,51.20
2018-04-15T10:22:07.011Z,52.20
2018-04-15T10:24:34.590Z,51.50
2018-04-15T10:27:02.965Z,57.30
2018-04-15T10:29:30.526Z,57.20
2018-04-15T10:31:58.277Z,57.60
2018-04-15T10:34:25.824Z,57.20
2018-04-15T10:36:53.424Z,54.60
2018-04-15T10:39:21.754Z,55.20
2018-04-15T10:41:49.351Z,55.10
2018-04-15T10:44:16.982Z,55.40
2018-04-15T10:46:44.585Z,54.50
2018-04-15T10:49:12.922Z,58.90
2018-04-15T10:51:40.499Z,58.90
2018-04-15T10:54:08.115Z,57.00
2018-04-15T10:56:35.713Z,55.90
2018-04-15T10:59:03.298Z,58.20
2018-04-15T11:01:30.860Z,58.40
2018-04-15T11:03:58.397Z,58.10
2018-04-15T11:06:25.961Z,58.00
2018-04-15T11:08:53.556Z,58.60
2018-04-15T11:11:21.938Z,56.90
2018-04-15T11:13:49.530Z,56.80
2018-04-15T11:16:17.129Z,55.30
2018-04-15T11:18:44.691Z,56.90
2018-04-15T11:21:12.284Z,59.20
2018-04-15T11:23:39.889Z,58.50
2018-04-15T11:26:07.462Z,58.50
2018-04-15T11:28:35.097Z,60.80
2018-04-15T11:31:02.700Z,59.80
2018-04-15T11:33:30.298Z,60.30
2018-04-15T11:35:57.926Z,60.70
2018-04-15T11:38:26.277Z,62.50
2018-04-15T11:40:53.862Z,62.40
2018-04-15T11:43:22.237Z,60.10
2018-04-15T11:45:49.827Z,60.10
2018-04-15T11:48:17.414Z,62.20
2018-04-15T11:50:46.804Z,59.50
2018-04-15T11:53:14.346Z,59.60
2018-04-15T11:55:43.894Z,58.60
2018-04-15T11:58:11.503Z,58.60
2018-04-15T12:00:39.091Z,56.50
2018-04-15T12:03:06.662Z,59.40
2018-04-15T12:05:34.217Z,60.20
2018-04-15T12:08:01.774Z,59.60
2018-04-15T12:10:29.380Z,59.50
2018-04-15T12:12:57.767Z,53.50
2018-04-15T12:15:26.173Z,55.20
2018-04-15T12:17:53.733Z,55.10
2018-04-15T12:20:21.366Z,54.10
2018-04-15T12:22:48.944Z,53.80
2018-04-15T12:25:16.552Z,56.90
2018-04-15T12:27:44.124Z,53.60
2018-04-15T12:30:11.742Z,56.60
2018-04-15T12:32:39.330Z,51.30
2018-04-15T12:35:06.950Z,51.00
2018-04-15T12:37:34.502Z,48.60
2018-04-15T12:40:02.115Z,47.00
2018-04-15T12:42:29.684Z,48.10
2018-04-15T12:44:57.263Z,47.40
2018-04-15T12:47:25.591Z,49.10
2018-04-15T12:49:53.214Z,49.70
2018-04-15T12:52:20.789Z,48.80
2018-04-15T12:54:48.333Z,47.20
2018-04-15T12:57:15.937Z,47.90
2018-04-15T12:59:43.581Z,50.50
2018-04-15T13:02:11.203Z,47.00
2018-04-15T13:04:39.551Z,50.70
2018-04-15T13:07:07.173Z,50.80
2018-04-15T13:09:34.818Z,48.90
2018-04-15T13:12:02.419Z,47.70
2018-04-15T13:14:29.967Z,49.40
2018-04-15T13:16:57.596Z,51.00
2018-04-15T13:19:25.173Z,48.10
2018-04-15T13:21:52.751Z,49.40
2018-04-15T13:24:20.341Z,48.50
2018-04-15T13:26:47.914Z,49.70
2018-04-15T13:29:16.257Z,47.40
2018-04-15T13:31:43.883Z,47.40
2018-04-15T13:34:11.450Z,48.20
2018-04-15T13:36:39.002Z,47.50
2018-04-15T13:39:06.626Z,48.30
2018-04-15T13:41:34.193Z,46.70
2018-04-15T13:44:02.538Z,47.10
2018-04-15T13:46:30.157Z,47.00
2018-04-15T13:48:57.732Z,46.60
2018-04-15T13:51:25.363Z,47.80
2018-04-15T13:53:53.681Z,46.90
2018-04-15T13:56:21.270Z,46.90
2018-04-15T13:58:48.837Z,49.30
2018-04-15T14:01:17.211Z,46.80
2018-04-15T14:03:44.770Z,46.90
2018-04-15T14:06:12.330Z,46.80
2018-04-15T14:08:39.958Z,48.70
2018-04-15T14:11:07.523Z,49.10
2018-04-15T14:13:35.101Z,48.60
2018-04-15T14:16:02.674Z,48.10
2018-04-15T14:18:30.285Z,49.90
2018-04-15T14:20:58.633Z,51.80
2018-04-15T14:23:26.250Z,51.80
2018-04-15T14:25:53.887Z,50.50
2018-04-15T14:28:22.256Z,49.00
2018-04-15T14:30:49.805Z,49.00
2018-04-15T14:33:17.370Z,50.10
2018-04-15T14:35:44.968Z,48.90
2018-04-15T14:38:12.609Z,50.70
2018-04-15T14:40:40.155Z,50.10
2018-04-15T14:43:07.749Z,51.60
2018-04-15T14:45:36.161Z,53.00
2018-04-15T14:48:03.769Z,53.00
2018-04-15T14:50:31.392Z,54.90
2018-04-15T14:52:58.944Z,56.30
2018-04-15T14:55:26.515Z,55.80
2018-04-15T14:57:54.079Z,55.80
2018-04-15T15:00:21.678Z,54.80
2018-04-15T15:02:49.295Z,54.20
2018-04-15T15:05:17.673Z,53.10
2018-04-15T15:07:45.304Z,53.00
2018-04-15T15:10:12.878Z,53.50
2018-04-15T15:12:40.497Z,52.90
2018-04-15T15:15:08.037Z,53.40
2018-04-15T15:17:35.651Z,54.60
2018-04-15T15:20:03.217Z,54.60
2018-04-15T15:22:30.834Z,55.70
2018-04-15T15:24:58.524Z,54.10
2018-04-15T15:27:26.078Z,54.80
2018-04-15T15:29:53.682Z,53.80
2018-04-15T15:32:21.267Z,54.00
2018-04-15T15:34:48.841Z,54.70
2018-04-15T15:37:16.404Z,54.00
2018-04-15T15:39:44.734Z,55.10
2018-04-15T15:42:12.363Z,55.00
2018-04-15T15:44:39.963Z,56.60
2018-04-15T15:47:07.585Z,57.60
2018-04-15T15:49:35.220Z,58.60
2018-04-15T15:52:02.789Z,60.60
2018-04-15T15:54:31.145Z,61.80
2018-04-15T15:56:58.717Z,61.80
2018-04-15T15:59:26.406Z,62.90
2018-04-15T16:01:53.998Z,62.20
2018-04-15T16:04:21.595Z,61.70
2018-04-15T16:06:49.220Z,61.00
2018-04-15T16:09:16.781Z,60.60
2018-04-15T16:11:44.366Z,61.50
2018-04-15T16:14:11.965Z,59.70
2018-04-15T16:16:39.550Z,60.00
2018-04-15T16:19:07.146Z,60.60
2018-04-15T16:21:34.769Z,62.10
2018-04-15T16:24:03.301Z,59.00
2018-04-15T16:26:31.657Z,60.30
2018-04-15T16:28:59.301Z,60.30
2018-04-15T16:31:27.766Z,60.90
2018-04-15T16:33:55.370Z,61.60
2018-04-15T16:36:22.972Z,63.60
2018-04-15T16:38:50.537Z,61.80
2018-04-15T16:41:18.218Z,63.30
2018-04-15T16:43:45.862Z,63.70
2018-04-15T16:46:13.462Z,63.90
2018-04-15T16:48:43.031Z,66.60
2018-04-15T16:51:10.671Z,67.70
2018-04-15T16:53:38.314Z,67.40
2018-04-15T16:56:05.924Z,66.90
2018-04-15T16:58:37.110Z,68.60
2018-04-15T17:01:04.737Z,69.90
2018-04-15T17:03:35.725Z,71.60
2018-04-15T17:06:04.166Z,72.90
2018-04-15T17:08:31.823Z,72.80
2018-04-15T17:10:59.414Z,74.70
2018-04-15T17:13:26.999Z,76.80
2018-04-15T17:15:54.595Z,77.90
2018-04-15T17:18:22.195Z,77.10
2018-04-15T17:20:50.562Z,80.60
2018-04-15T17:23:18.129Z,80.70
2018-04-15T17:25:45.714Z,80.70
2018-04-15T17:31:12.142Z,83.20
2018-04-15T17:33:39.792Z,85.20
2018-04-15T17:36:07.412Z,87.20
2018-04-15T17:38:35.018Z,89.90
2018-04-15T17:41:06.573Z,90.20
2018-04-15T17:43:34.206Z,90.70
2018-04-15T17:49:05.715Z,92.70
2018-04-15T17:54:32.808Z,94.90
2018-04-15T17:57:19.831Z,95.70
2018-04-15T17:59:47.416Z,96.50
2018-04-15T18:02:15.041Z,97.60
2018-04-15T18:04:42.633Z,98.40
2018-04-15T18:07:10.236Z,99.00
2018-04-15T18:09:37.866Z,99.70
2018-04-15T18:12:08.516Z,99.90
2018-04-15T18:14:37.157Z,99.90
2018-04-15T18:17:04.706Z,99.90
2018-04-15T18:19:32.332Z,99.90
2018-04-15T18:21:59.990Z,99.90
2018-04-15T18:24:27.598Z,99.90
2018-04-15T18:26:55.193Z,99.90
2018-04-15T18:29:22.785Z,99.90
2018-04-15T18:31:51.212Z,99.90
2018-04-15T18:34:18.775Z,99.90
2018-04-15T18:36:49.580Z,99.90
2018-04-15T18:39:23.125Z,99.90
2018-04-15T18:41:54.781Z,99.90
2018-04-15T18:44:25.542Z,99.90
2018-04-15T18:46:53.164Z,99.90
2018-04-15T18:49:20.766Z,99.90
2018-04-15T18:51:48.384Z,99.90
2018-04-15T18:54:15.964Z,99.90
2018-04-15T18:56:43.596Z,99.90
2018-04-15T18:59:11.222Z,99.90
2018-04-15T19:04:37.270Z,99.90
2018-04-15T19:07:21.451Z,99.90
2018-04-15T19:09:49.064Z,99.90
2018-04-15T19:12:17.401Z,99.90
2018-04-15T19:14:45.031Z,99.90
2018-04-15T19:17:12.642Z,99.90
2018-04-15T19:19:40.248Z,99.90
2018-04-15T19:22:07.832Z,99.90
2018-04-15T19:24:35.428Z,99.90
2018-04-15T19:27:03.012Z,99.90
2018-04-15T19:29:31.382Z,99.90
2018-04-15T19:31:59.779Z,99.90
2018-04-15T19:34:27.440Z,99.90
2018-04-15T19:36:55.065Z,99.90
2018-04-15T19:39:22.654Z,99.90
2018-04-15T19:41:51.106Z,99.90
2018-04-15T19:44:18.673Z,99.90
2018-04-15T19:46:46.295Z,99.90
2018-04-15T19:49:13.935Z,99.90
2018-04-15T19:51:41.557Z,99.90
2018-04-15T19:54:09.225Z,99.90
2018-04-15T19:56:36.844Z,99.90
2018-04-15T19:59:04.431Z,99.90
2018-04-15T20:01:32.057Z,99.90
2018-04-15T20:03:59.615Z,99.90
2018-04-15T20:06:27.209Z,99.90
2018-04-15T20:08:54.843Z,99.90
2018-04-15T20:11:22.487Z,99.90
2018-04-15T20:13:50.155Z,99.90
2018-04-15T20:16:18.475Z,99.90
2018-04-15T20:18:46.063Z,99.90
2018-04-15T20:21:13.689Z,99.90
2018-04-15T20:23:41.310Z,99.90
2018-04-15T20:26:08.918Z,99.90
2018-04-15T20:28:36.548Z,99.90
2018-04-15T20:31:04.180Z,99.90
2018-04-15T20:33:31.788Z,99.90
2018-04-15T20:35:59.401Z,99.90
2018-04-15T20:38:26.986Z,99.90
2018-04-15T20:40:54.671Z,99.90
2018-04-15T20:43:22.287Z,99.90
2018-04-15T20:45:49.878Z,99.90
2018-04-15T20:48:17.454Z,99.90
2018-04-15T20:50:45.092Z,99.90
2018-04-15T20:53:12.668Z,99.90
2018-04-15T20:55:40.317Z,99.90
2018-04-15T20:58:07.883Z,99.90
2018-04-15T21:00:35.495Z,99.90
2018-04-15T21:03:03.107Z,99.90
2018-04-15T21:05:30.679Z,99.90
2018-04-15T21:07:58.250Z,99.90
2018-04-15T21:10:25.839Z,99.90
2018-04-15T21:12:53.470Z,99.90
2018-04-15T21:15:21.056Z,99.90
2018-04-15T21:21:07.182Z,99.90
2018-04-15T21:23:34.781Z,99.90
2018-04-15T21:26:02.404Z,99.90
2018-04-15T21:28:30.041Z,99.90
2018-04-15T21:30:58.424Z,99.90
2018-04-15T21:33:26.801Z,99.90
2018-04-15T21:35:55.182Z,99.90
2018-04-15T21:38:23.587Z,99.90
2018-04-15T21:40:51.883Z,99.90
2018-04-15T21:43:19.533Z,99.90
2018-04-15T21:45:47.133Z,99.90
2018-04-15T21:48:14.729Z,99.90
2018-04-15T21:50:42.342Z,99.90
2018-04-15T21:53:09.919Z,99.90
2018-04-15T21:55:37.499Z,99.90
2018-04-15T21:58:05.865Z,99.90
2018-04-15T22:00:34.236Z,99.90
2018-04-15T22:03:01.843Z,99.90
2018-04-15T22:05:29.452Z,99.90
2018-04-15T22:07:57.087Z,99.90
2018-04-15T22:10:24.714Z,99.90
2018-04-15T22:12:52.293Z,99.90
2018-04-15T22:15:19.917Z,99.90
2018-04-15T22:17:48.266Z,99.90
2018-04-15T22:20:15.834Z,99.90
2018-04-15T22:22:43.433Z,99.90
2018-04-15T22:25:11.006Z,99.90
2018-04-15T22:27:38.571Z,99.90
2018-04-15T22:30:06.130Z,99.90
2018-04-15T22:32:33.700Z,99.90
2018-04-15T22:35:01.344Z,99.90
2018-04-15T22:37:29.018Z,99.90
2018-04-15T22:39:56.649Z,99.90
2018-04-15T22:42:24.208Z,99.90
2018-04-15T22:44:51.787Z,99.90
2018-04-15T22:47:19.375Z,99.90
2018-04-15T22:49:46.956Z,99.90
2018-04-15T22:52:14.561Z,99.90
2018-04-15T22:54:42.197Z,99.90
2018-04-15T22:57:13.617Z,99.90
2018-04-15T22:59:41.256Z,99.90
2018-04-15T23:02:08.908Z,99.90
2018-04-15T23:04:36.545Z,99.90
2018-04-15T23:07:04.186Z,99.90
2018-04-15T23:09:32.530Z,99.90
2018-04-15T23:12:00.129Z,99.90
2018-04-15T23:14:28.492Z,99.90
2018-04-15T23:16:56.866Z,99.90
2018-04-15T23:19:24.473Z,99.90
2018-04-15T23:21:52.117Z,99.90
2018-04-15T23:24:19.710Z,99.90
2018-04-15T23:26:47.298Z,99.90
2018-04-15T23:29:14.887Z,99.90
2018-04-15T23:31:43.255Z,99.90
2018-04-15T23:34:11.650Z,99.90
2018-04-15T23:36:39.274Z,99.90
2018-04-15T23:39:06.934Z,99.90
2018-04-15T23:41:34.520Z,99.90
2018-04-15T23:49:53.485Z,99.90
2018-04-15T23:52:21.106Z,99.90
2018-04-15T23:54:48.678Z,99.90
2018-04-15T23:57:16.232Z,99.90
2018-04-15T23:59:43.835Z,99.90
